sensor_id;sensor_type;location;lat;lon;timestamp;pressure;altitude;pressure_sealevel;temperature
75431;BMP280;64127;51.488;5.462;2023-03-14T00:01:47;98757.16;;;15.03
75431;BMP280;64127;51.488;5.462;2023-03-14T00:04:20;98758.06;;;14.99
75431;BMP280;64127;51.488;5.462;2023-03-14T00:06:52;98757.19;;;14.97
75431;BMP280;64127;51.488;5.462;2023-03-14T00:09:24;98758.09;;;14.94
75431;BMP280;64127;51.488;5.462;2023-03-14T00:11:58;98757.22;;;14.94
75431;BMP280;64127;51.488;5.462;2023-03-14T00:14:31;98752.88;;;14.90
75431;BMP280;64127;51.488;5.462;2023-03-14T00:17:03;98765.22;;;14.88
75431;BMP280;64127;51.488;5.462;2023-03-14T00:19:35;98768.78;;;14.85
75431;BMP280;64127;51.488;5.462;2023-03-14T00:22:07;98782.03;;;14.78
75431;BMP280;64127;51.488;5.462;2023-03-14T00:24:39;98782.97;;;14.72
75431;BMP280;64127;51.488;5.462;2023-03-14T00:27:11;98775.13;;;14.64
75431;BMP280;64127;51.488;5.462;2023-03-14T00:29:43;98777.81;;;14.61
75431;BMP280;64127;51.488;5.462;2023-03-14T00:32:15;98781.34;;;14.56
75431;BMP280;64127;51.488;5.462;2023-03-14T00:34:47;98796.31;;;14.52
75431;BMP280;64127;51.488;5.462;2023-03-14T00:37:19;98799.03;;;14.48
75431;BMP280;64127;51.488;5.462;2023-03-14T00:39:52;98792.03;;;14.44
75431;BMP280;64127;51.488;5.462;2023-03-14T00:42:24;98796.44;;;14.40
75431;BMP280;64127;51.488;5.462;2023-03-14T00:44:56;98804.31;;;14.43
75431;BMP280;64127;51.488;5.462;2023-03-14T00:47:28;98806.97;;;14.43
75431;BMP280;64127;51.488;5.462;2023-03-14T00:50:00;98803.47;;;14.41
75431;BMP280;64127;51.488;5.462;2023-03-14T00:52:32;98807.00;;;14.37
75431;BMP280;64127;51.488;5.462;2023-03-14T00:55:04;98804.41;;;14.31
75431;BMP280;64127;51.488;5.462;2023-03-14T00:57:36;98800.03;;;14.27
75431;BMP280;64127;51.488;5.462;2023-03-14T01:00:09;98800.94;;;14.21
75431;BMP280;64127;51.488;5.462;2023-03-14T01:02:44;98790.41;;;14.25
75431;BMP280;64127;51.488;5.462;2023-03-14T01:05:16;98786.88;;;14.26
75431;BMP280;64127;51.488;5.462;2023-03-14T01:07:48;98789.50;;;14.27
75431;BMP280;64127;51.488;5.462;2023-03-14T01:10:20;98794.78;;;14.26
75431;BMP280;64127;51.488;5.462;2023-03-14T01:12:52;98796.53;;;14.25
75431;BMP280;64127;51.488;5.462;2023-03-14T01:15:24;98806.19;;;14.28
75431;BMP280;64127;51.488;5.462;2023-03-14T01:17:56;98801.78;;;14.25
75431;BMP280;64127;51.488;5.462;2023-03-14T01:20:28;98790.38;;;14.28
75431;BMP280;64127;51.488;5.462;2023-03-14T01:23:00;98790.38;;;14.26
75431;BMP280;64127;51.488;5.462;2023-03-14T01:25:32;98779.03;;;14.21
75431;BMP280;64127;51.488;5.462;2023-03-14T01:28:04;98780.78;;;14.19
75431;BMP280;64127;51.488;5.462;2023-03-14T01:30:36;98768.47;;;14.18
75431;BMP280;64127;51.488;5.462;2023-03-14T01:33:08;98772.91;;;14.14
75431;BMP280;64127;51.488;5.462;2023-03-14T01:35:40;98768.56;;;14.09
75431;BMP280;64127;51.488;5.462;2023-03-14T01:38:12;98747.53;;;14.06
75431;BMP280;64127;51.488;5.462;2023-03-14T01:40:44;98755.41;;;14.09
75431;BMP280;64127;51.488;5.462;2023-03-14T01:43:19;98757.16;;;14.10
75431;BMP280;64127;51.488;5.462;2023-03-14T01:52:07;98738.75;;;14.01
75431;BMP280;64127;51.488;5.462;2023-03-14T01:54:59;98738.81;;;13.96
75431;BMP280;64127;51.488;5.462;2023-03-14T01:57:43;98726.56;;;13.94
75431;BMP280;64127;51.488;5.462;2023-03-14T02:00:21;98735.34;;;13.93
75431;BMP280;64127;51.488;5.462;2023-03-14T02:03:00;98732.69;;;13.94
75431;BMP280;64127;51.488;5.462;2023-03-14T02:05:38;98736.22;;;13.93
75431;BMP280;64127;51.488;5.462;2023-03-14T02:08:15;98734.50;;;13.88
75431;BMP280;64127;51.488;5.462;2023-03-14T02:10:50;98736.25;;;13.87
75431;BMP280;64127;51.488;5.462;2023-03-14T02:13:22;98733.63;;;13.90
75431;BMP280;64127;51.488;5.462;2023-03-14T02:15:54;98719.56;;;13.90
75431;BMP280;64127;51.488;5.462;2023-03-14T02:18:27;98726.63;;;13.86
75431;BMP280;64127;51.488;5.462;2023-03-14T02:24:40;98723.16;;;13.80
75431;BMP280;64127;51.488;5.462;2023-03-14T02:27:18;98728.41;;;13.78
75431;BMP280;64127;51.488;5.462;2023-03-14T02:30:09;98732.81;;;13.79
75431;BMP280;64127;51.488;5.462;2023-03-14T02:32:47;98724.00;;;13.82
75431;BMP280;64127;51.488;5.462;2023-03-14T02:35:28;98713.47;;;13.82
75431;BMP280;64127;51.488;5.462;2023-03-14T02:38:14;98711.72;;;13.81
75431;BMP280;64127;51.488;5.462;2023-03-14T02:40:47;98692.50;;;13.73
75431;BMP280;64127;51.488;5.462;2023-03-14T02:43:19;98708.19;;;13.85
75431;BMP280;64127;51.488;5.462;2023-03-14T02:45:52;98711.69;;;13.87
75431;BMP280;64127;51.488;5.462;2023-03-14T02:48:40;98699.38;;;13.87
75431;BMP280;64127;51.488;5.462;2023-03-14T02:51:14;98706.38;;;13.91
75431;BMP280;64127;51.488;5.462;2023-03-14T02:53:47;98697.59;;;13.92
75431;BMP280;64127;51.488;5.462;2023-03-14T02:56:19;98688.88;;;13.86
75431;BMP280;64127;51.488;5.462;2023-03-14T02:58:51;98709.00;;;13.93
75431;BMP280;64127;51.488;5.462;2023-03-14T03:01:23;98717.75;;;13.95
75431;BMP280;64127;51.488;5.462;2023-03-14T03:03:55;98712.53;;;13.87
75431;BMP280;64127;51.488;5.462;2023-03-14T03:06:27;98715.19;;;13.87
75431;BMP280;64127;51.488;5.462;2023-03-14T03:08:59;98712.56;;;13.86
75431;BMP280;64127;51.488;5.462;2023-03-14T03:11:32;98721.34;;;13.85
75431;BMP280;64127;51.488;5.462;2023-03-14T03:14:04;98727.50;;;13.87
75431;BMP280;64127;51.488;5.462;2023-03-14T03:16:36;98730.09;;;13.88
75431;BMP280;64127;51.488;5.462;2023-03-14T03:19:08;98720.47;;;13.86
75431;BMP280;64127;51.488;5.462;2023-03-14T03:21:40;98708.22;;;13.82
75431;BMP280;64127;51.488;5.462;2023-03-14T03:24:12;98691.59;;;13.73
75431;BMP280;64127;51.488;5.462;2023-03-14T03:26:44;98708.22;;;13.82
75431;BMP280;64127;51.488;5.462;2023-03-14T03:29:16;98709.97;;;13.83
75431;BMP280;64127;51.488;5.462;2023-03-14T03:31:48;98696.84;;;13.73
75431;BMP280;64127;51.488;5.462;2023-03-14T03:34:20;98702.97;;;13.79
75431;BMP280;64127;51.488;5.462;2023-03-14T03:36:52;98703.00;;;13.74
75431;BMP280;64127;51.488;5.462;2023-03-14T03:39:24;98710.94;;;13.66
75431;BMP280;64127;51.488;5.462;2023-03-14T03:41:56;98698.69;;;13.65
75431;BMP280;64127;51.488;5.462;2023-03-14T03:44:28;98705.69;;;13.66
75431;BMP280;64127;51.488;5.462;2023-03-14T03:47:00;98703.94;;;13.65
75431;BMP280;64127;51.488;5.462;2023-03-14T03:49:32;98692.53;;;13.63
75431;BMP280;64127;51.488;5.462;2023-03-14T03:52:04;98693.47;;;13.59
75431;BMP280;64127;51.488;5.462;2023-03-14T03:54:36;98684.69;;;13.57
75431;BMP280;64127;51.488;5.462;2023-03-14T03:57:08;98697.00;;;13.55
75431;BMP280;64127;51.488;5.462;2023-03-14T03:59:40;98694.38;;;13.49
75431;BMP280;64127;51.488;5.462;2023-03-14T04:02:12;98688.28;;;13.47
75431;BMP280;64127;51.488;5.462;2023-03-14T04:04:45;98695.31;;;13.45
75431;BMP280;64127;51.488;5.462;2023-03-14T04:07:17;98684.81;;;13.42
75431;BMP280;64127;51.488;5.462;2023-03-14T04:09:49;98688.31;;;13.43
75431;BMP280;64127;51.488;5.462;2023-03-14T04:12:21;98683.91;;;13.43
75431;BMP280;64127;51.488;5.462;2023-03-14T04:14:53;98689.19;;;13.43
75431;BMP280;64127;51.488;5.462;2023-03-14T04:17:25;98683.91;;;13.43
75431;BMP280;64127;51.488;5.462;2023-03-14T04:19:57;98678.69;;;13.40
75431;BMP280;64127;51.488;5.462;2023-03-14T04:22:29;98683.94;;;13.40
75431;BMP280;64127;51.488;5.462;2023-03-14T04:25:01;98693.63;;;13.35
75431;BMP280;64127;51.488;5.462;2023-03-14T04:27:35;98682.25;;;13.30
75431;BMP280;64127;51.488;5.462;2023-03-14T04:30:08;98690.13;;;13.30
75431;BMP280;64127;51.488;5.462;2023-03-14T04:32:40;98679.63;;;13.30
75431;BMP280;64127;51.488;5.462;2023-03-14T04:35:12;98678.78;;;13.28
75431;BMP280;64127;51.488;5.462;2023-03-14T04:37:44;98685.81;;;13.25
75431;BMP280;64127;51.488;5.462;2023-03-14T04:40:16;98679.66;;;13.23
75431;BMP280;64127;51.488;5.462;2023-03-14T04:42:49;98677.09;;;13.13
75431;BMP280;64127;51.488;5.462;2023-03-14T04:45:21;98670.09;;;13.09
75431;BMP280;64127;51.488;5.462;2023-03-14T04:47:53;98669.22;;;13.06
75431;BMP280;64127;51.488;5.462;2023-03-14T04:50:25;98660.44;;;13.05
75431;BMP280;64127;51.488;5.462;2023-03-14T04:52:57;98653.53;;;12.91
75431;BMP280;64127;51.488;5.462;2023-03-14T04:55:29;98681.53;;;12.98
75431;BMP280;64127;51.488;5.462;2023-03-14T04:58:01;98679.81;;;12.91
75431;BMP280;64127;51.488;5.462;2023-03-14T05:00:33;98692.09;;;12.90
75431;BMP280;64127;51.488;5.462;2023-03-14T05:03:05;98685.94;;;12.90
75431;BMP280;64127;51.488;5.462;2023-03-14T05:05:37;98686.84;;;12.84
75431;BMP280;64127;51.488;5.462;2023-03-14T05:08:10;98685.09;;;12.82
75431;BMP280;64127;51.488;5.462;2023-03-14T05:10:42;98686.00;;;12.81
75431;BMP280;64127;51.488;5.462;2023-03-14T05:13:14;98679.88;;;12.76
75431;BMP280;64127;51.488;5.462;2023-03-14T05:15:46;98688.63;;;12.75
75431;BMP280;64127;51.488;5.462;2023-03-14T05:18:18;98683.38;;;12.75
75431;BMP280;64127;51.488;5.462;2023-03-14T05:20:51;98683.38;;;12.75
75431;BMP280;64127;51.488;5.462;2023-03-14T05:23:23;98681.63;;;12.72
75431;BMP280;64127;51.488;5.462;2023-03-14T05:25:55;98667.66;;;12.65
75431;BMP280;64127;51.488;5.462;2023-03-14T05:28:27;98686.03;;;12.68
75431;BMP280;64127;51.488;5.462;2023-03-14T05:31:00;98688.63;;;12.71
75431;BMP280;64127;51.488;5.462;2023-03-14T05:33:31;98683.38;;;12.75
75431;BMP280;64127;51.488;5.462;2023-03-14T05:36:04;98635.28;;;12.51
75431;BMP280;64127;51.488;5.462;2023-03-14T05:38:36;98662.34;;;12.75
75431;BMP280;64127;51.488;5.462;2023-03-14T05:41:08;98660.59;;;12.70
75431;BMP280;64127;51.488;5.462;2023-03-14T05:43:40;98661.50;;;12.73
75431;BMP280;64127;51.488;5.462;2023-03-14T05:46:12;98663.22;;;12.70
75431;BMP280;64127;51.488;5.462;2023-03-14T05:48:44;98664.13;;;12.69
75431;BMP280;64127;51.488;5.462;2023-03-14T05:51:16;98665.88;;;12.74
75431;BMP280;64127;51.488;5.462;2023-03-14T05:53:48;98658.84;;;12.73
75431;BMP280;64127;51.488;5.462;2023-03-14T05:56:20;98645.69;;;12.83
75431;BMP280;64127;51.488;5.462;2023-03-14T05:58:52;98652.72;;;12.75
75431;BMP280;64127;51.488;5.462;2023-03-14T06:01:24;98653.59;;;12.73
75431;BMP280;64127;51.488;5.462;2023-03-14T06:03:56;98657.97;;;12.75
75431;BMP280;64127;51.488;5.462;2023-03-14T06:06:28;98659.69;;;12.79
75431;BMP280;64127;51.488;5.462;2023-03-14T06:09:00;98642.22;;;12.69
75431;BMP280;64127;51.488;5.462;2023-03-14T06:11:32;98651.81;;;12.75
75431;BMP280;64127;51.488;5.462;2023-03-14T06:14:04;98646.56;;;12.75
75431;BMP280;64127;51.488;5.462;2023-03-14T06:16:36;98645.72;;;12.71
75431;BMP280;64127;51.488;5.462;2023-03-14T06:19:08;98656.25;;;12.68
75431;BMP280;64127;51.488;5.462;2023-03-14T06:21:40;98645.75;;;12.60
75431;BMP280;64127;51.488;5.462;2023-03-14T06:24:12;98658.91;;;12.57
75431;BMP280;64127;51.488;5.462;2023-03-14T06:26:44;98654.53;;;12.59
75431;BMP280;64127;51.488;5.462;2023-03-14T06:29:16;98640.53;;;12.59
75431;BMP280;64127;51.488;5.462;2023-03-14T06:31:48;98657.13;;;12.64
75431;BMP280;64127;51.488;5.462;2023-03-14T06:34:20;98659.75;;;12.65
75431;BMP280;64127;51.488;5.462;2023-03-14T06:36:52;98641.41;;;12.59
75431;BMP280;64127;51.488;5.462;2023-03-14T06:39:24;98651.00;;;12.66
75431;BMP280;64127;51.488;5.462;2023-03-14T06:41:56;98655.38;;;12.69
75431;BMP280;64127;51.488;5.462;2023-03-14T06:44:28;98661.50;;;12.69
75431;BMP280;64127;51.488;5.462;2023-03-14T06:47:00;98666.72;;;12.71
75431;BMP280;64127;51.488;5.462;2023-03-14T06:49:32;98666.78;;;12.66
75431;BMP280;64127;51.488;5.462;2023-03-14T06:52:04;98670.25;;;12.68
75431;BMP280;64127;51.488;5.462;2023-03-14T06:54:36;98670.28;;;12.67
75431;BMP280;64127;51.488;5.462;2023-03-14T06:57:08;98673.72;;;12.75
75431;BMP280;64127;51.488;5.462;2023-03-14T06:59:40;98675.47;;;12.79
75431;BMP280;64127;51.488;5.462;2023-03-14T07:02:13;98679.84;;;12.82
75431;BMP280;64127;51.488;5.462;2023-03-14T07:04:45;98678.06;;;12.85
75431;BMP280;64127;51.488;5.462;2023-03-14T07:07:17;98699.09;;;12.85
75431;BMP280;64127;51.488;5.462;2023-03-14T07:09:49;98690.34;;;12.85
75431;BMP280;64127;51.488;5.462;2023-03-14T07:12:21;98667.66;;;12.65
75431;BMP280;64127;51.488;5.462;2023-03-14T07:14:53;98699.13;;;12.84
75431;BMP280;64127;51.488;5.462;2023-03-14T07:17:26;98703.50;;;12.82
75431;BMP280;64127;51.488;5.462;2023-03-14T07:19:58;98678.13;;;12.71
75431;BMP280;64127;51.488;5.462;2023-03-14T07:22:31;98715.78;;;12.84
75431;BMP280;64127;51.488;5.462;2023-03-14T07:25:04;98712.28;;;12.81
75431;BMP280;64127;51.488;5.462;2023-03-14T07:27:36;98712.25;;;12.79
75431;BMP280;64127;51.488;5.462;2023-03-14T07:30:09;98724.53;;;12.79
75431;BMP280;64127;51.488;5.462;2023-03-14T07:32:41;98730.69;;;12.73
75431;BMP280;64127;51.488;5.462;2023-03-14T07:35:13;98773.63;;;12.74
75431;BMP280;64127;51.488;5.462;2023-03-14T07:37:45;98805.13;;;12.67
75431;BMP280;64127;51.488;5.462;2023-03-14T07:40:17;98818.31;;;12.55
75431;BMP280;64127;51.488;5.462;2023-03-14T07:42:49;98839.31;;;12.40
75431;BMP280;64127;51.488;5.462;2023-03-14T07:45:21;98854.19;;;12.20
75431;BMP280;64127;51.488;5.462;2023-03-14T07:47:55;98855.03;;;12.07
75431;BMP280;64127;51.488;5.462;2023-03-14T07:50:29;98856.78;;;11.99
75431;BMP280;64127;51.488;5.462;2023-03-14T07:53:01;98880.41;;;11.97
75431;BMP280;64127;51.488;5.462;2023-03-14T07:55:33;98886.50;;;11.92
75431;BMP280;64127;51.488;5.462;2023-03-14T07:58:05;98889.13;;;11.81
75431;BMP280;64127;51.488;5.462;2023-03-14T08:00:38;98899.50;;;11.66
75431;BMP280;64127;51.488;5.462;2023-03-14T08:03:10;98914.34;;;11.62
75431;BMP280;64127;51.488;5.462;2023-03-14T08:05:43;98914.31;;;11.50
75431;BMP280;64127;51.488;5.462;2023-03-14T08:08:17;98927.44;;;11.53
75431;BMP280;64127;51.488;5.462;2023-03-14T08:10:49;98946.69;;;11.54
75431;BMP280;64127;51.488;5.462;2023-03-14T08:13:21;98942.25;;;11.45
75431;BMP280;64127;51.488;5.462;2023-03-14T08:15:55;98950.97;;;11.44
75431;BMP280;64127;51.488;5.462;2023-03-14T08:18:27;98950.06;;;11.36
75431;BMP280;64127;51.488;5.462;2023-03-14T08:20:59;98971.09;;;11.45
75431;BMP280;64127;51.488;5.462;2023-03-14T08:23:31;98978.03;;;11.36
75431;BMP280;64127;51.488;5.462;2023-03-14T08:26:03;98995.47;;;11.31
75431;BMP280;64127;51.488;5.462;2023-03-14T08:28:38;99002.44;;;11.26
75431;BMP280;64127;51.488;5.462;2023-03-14T08:31:11;99021.56;;;11.15
75431;BMP280;64127;51.488;5.462;2023-03-14T08:33:44;99024.13;;;11.08
75431;BMP280;64127;51.488;5.462;2023-03-14T08:36:16;99033.78;;;11.12
75431;BMP280;64127;51.488;5.462;2023-03-14T08:38:48;99050.34;;;11.11
75431;BMP280;64127;51.488;5.462;2023-03-14T08:41:20;99053.81;;;11.07
75431;BMP280;64127;51.488;5.462;2023-03-14T08:43:52;99059.09;;;11.11
75431;BMP280;64127;51.488;5.462;2023-03-14T08:46:24;99056.44;;;11.07
75431;BMP280;64127;51.488;5.462;2023-03-14T08:48:56;99081.03;;;11.21
75431;BMP280;64127;51.488;5.462;2023-03-14T08:51:28;99091.53;;;11.19
75431;BMP280;64127;51.488;5.462;2023-03-14T08:54:00;99095.81;;;11.14
75431;BMP280;64127;51.488;5.462;2023-03-14T08:56:32;99101.00;;;11.10
75431;BMP280;64127;51.488;5.462;2023-03-14T08:59:05;99088.75;;;11.04
75431;BMP280;64127;51.488;5.462;2023-03-14T09:01:37;99120.31;;;11.15
75431;BMP280;64127;51.488;5.462;2023-03-14T09:04:09;99129.88;;;11.13
75431;BMP280;64127;51.488;5.462;2023-03-14T09:06:41;99137.81;;;11.19
75431;BMP280;64127;51.488;5.462;2023-03-14T09:09:13;99143.09;;;11.22
75431;BMP280;64127;51.488;5.462;2023-03-14T09:11:45;99146.59;;;11.24
75431;BMP280;64127;51.488;5.462;2023-03-14T09:14:17;99157.97;;;11.25
75431;BMP280;64127;51.488;5.462;2023-03-14T09:16:50;99164.09;;;11.25
75431;BMP280;64127;51.488;5.462;2023-03-14T09:43:01;99160.50;;;10.43
75431;BMP280;64127;51.488;5.462;2023-03-14T09:45:40;99288.09;;;11.18
75431;BMP280;64127;51.488;5.462;2023-03-14T09:54:49;99347.41;;;11.10
75431;BMP280;64127;51.488;5.462;2023-03-14T09:57:25;99351.78;;;11.09
75431;BMP280;64127;51.488;5.462;2023-03-14T10:00:05;99372.78;;;11.11
75431;BMP280;64127;51.488;5.462;2023-03-14T10:03:00;99380.50;;;11.03
75431;BMP280;64127;51.488;5.462;2023-03-14T10:05:41;99399.75;;;11.02
75431;BMP280;64127;51.488;5.462;2023-03-14T10:08:14;99413.81;;;11.09
75431;BMP280;64127;51.488;5.462;2023-03-14T10:10:46;99412.38;;;11.29
75431;BMP280;64127;51.488;5.462;2023-03-14T10:13:24;99437.13;;;11.49
75431;BMP280;64127;51.488;5.462;2023-03-14T10:16:04;99445.13;;;11.61
75431;BMP280;64127;51.488;5.462;2023-03-14T10:18:44;99457.41;;;11.62
75431;BMP280;64127;51.488;5.462;2023-03-14T10:21:35;99475.81;;;11.65
75431;BMP280;64127;51.488;5.462;2023-03-14T10:24:22;99480.22;;;11.66
75431;BMP280;64127;51.488;5.462;2023-03-14T10:27:05;99493.44;;;11.71
75431;BMP280;64127;51.488;5.462;2023-03-14T10:29:55;99501.97;;;11.61
75431;BMP280;64127;51.488;5.462;2023-03-14T10:32:38;99519.31;;;11.51
75431;BMP280;64127;51.488;5.462;2023-03-14T10:37:53;99531.69;;;11.58
75431;BMP280;64127;51.488;5.462;2023-03-14T10:40:37;99546.56;;;11.61
75431;BMP280;64127;51.488;5.462;2023-03-14T10:43:30;99556.19;;;11.57
75431;BMP280;64127;51.488;5.462;2023-03-14T10:46:16;99576.09;;;11.48
75431;BMP280;64127;51.488;5.462;2023-03-14T10:48:49;99577.13;;;11.56
75431;BMP280;64127;51.488;5.462;2023-03-14T10:51:30;99587.75;;;11.63
75431;BMP280;64127;51.488;5.462;2023-03-14T10:54:19;99606.06;;;11.60
75431;BMP280;64127;51.488;5.462;2023-03-14T10:57:00;99604.94;;;11.46
75431;BMP280;64127;51.488;5.462;2023-03-14T10:59:39;99613.56;;;11.39
75431;BMP280;64127;51.488;5.462;2023-03-14T11:08:26;99649.50;;;11.43
75431;BMP280;64127;51.488;5.462;2023-03-14T11:11:23;99658.31;;;11.48
75431;BMP280;64127;51.488;5.462;2023-03-14T11:17:20;99677.31;;;11.35
75431;BMP280;64127;51.488;5.462;2023-03-14T11:28:58;99713.25;;;11.39
75431;BMP280;64127;51.488;5.462;2023-03-14T11:31:38;99725.38;;;11.34
75431;BMP280;64127;51.488;5.462;2023-03-14T11:37:01;99743.78;;;11.36
75431;BMP280;64127;51.488;5.462;2023-03-14T11:39:45;99756.00;;;11.35
75431;BMP280;64127;51.488;5.462;2023-03-14T11:42:19;99781.34;;;11.33
75431;BMP280;64127;51.488;5.462;2023-03-14T11:44:55;99794.41;;;11.32
75431;BMP280;64127;51.488;5.462;2023-03-14T11:47:37;99814.19;;;11.16
75431;BMP280;64127;51.488;5.462;2023-03-14T11:50:27;99815.19;;;10.84
75431;BMP280;64127;51.488;5.462;2023-03-14T11:53:14;99818.53;;;10.77
75431;BMP280;64127;51.488;5.462;2023-03-14T11:55:48;99823.66;;;10.72
75431;BMP280;64127;51.488;5.462;2023-03-14T11:58:29;99783.91;;;10.52
75431;BMP280;64127;51.488;5.462;2023-03-14T12:01:10;99833.41;;;10.78
75431;BMP280;64127;51.488;5.462;2023-03-14T12:06:49;99845.88;;;10.88
75431;BMP280;64127;51.488;5.462;2023-03-14T12:09:22;99841.72;;;10.97
75431;BMP280;64127;51.488;5.462;2023-03-14T12:12:02;99850.59;;;11.04
75431;BMP280;64127;51.488;5.462;2023-03-14T12:14:44;99858.75;;;11.16
75431;BMP280;64127;51.488;5.462;2023-03-14T12:17:28;99878.03;;;11.18
75431;BMP280;64127;51.488;5.462;2023-03-14T12:20:22;99883.22;;;11.16
75431;BMP280;64127;51.488;5.462;2023-03-14T12:23:10;99900.41;;;11.04
75431;BMP280;64127;51.488;5.462;2023-03-14T12:25:43;99898.69;;;11.04
75431;BMP280;64127;51.488;5.462;2023-03-14T12:28:21;99898.69;;;11.04
75431;BMP280;64127;51.488;5.462;2023-03-14T12:45:33;99906.81;;;11.96
75431;BMP280;64127;51.488;5.462;2023-03-14T12:48:23;99909.00;;;12.18
75431;BMP280;64127;51.488;5.462;2023-03-14T12:51:12;99911.38;;;12.52
75431;BMP280;64127;51.488;5.462;2023-03-14T12:59:33;99926.25;;;13.03
75431;BMP280;64127;51.488;5.462;2023-03-14T13:04:53;99926.44;;;13.13
75431;BMP280;64127;51.488;5.462;2023-03-14T13:10:48;99942.59;;;13.39
75431;BMP280;64127;51.488;5.462;2023-03-14T13:13:23;99944.66;;;13.58
75431;BMP280;64127;51.488;5.462;2023-03-14T13:16:00;99966.56;;;13.56
75431;BMP280;64127;51.488;5.462;2023-03-14T13:18:42;99957.63;;;13.46
75431;BMP280;64127;51.488;5.462;2023-03-14T13:21:21;99965.31;;;13.31
75431;BMP280;64127;51.488;5.462;2023-03-14T13:24:25;99969.59;;;13.26
75431;BMP280;64127;51.488;5.462;2023-03-14T13:26:57;99975.75;;;13.25
75431;BMP280;64127;51.488;5.462;2023-03-14T13:29:33;99979.38;;;13.33
75431;BMP280;64127;51.488;5.462;2023-03-14T13:32:20;99984.72;;;13.39
75431;BMP280;64127;51.488;5.462;2023-03-14T13:34:59;99988.31;;;13.44
75431;BMP280;64127;51.488;5.462;2023-03-14T13:37:39;99983.38;;;13.67
75431;BMP280;64127;51.488;5.462;2023-03-14T13:40:33;99987.31;;;13.96
75431;BMP280;64127;51.488;5.462;2023-03-14T13:43:32;99992.78;;;14.13
75431;BMP280;64127;51.488;5.462;2023-03-14T13:46:05;99989.28;;;14.14
75431;BMP280;64127;51.488;5.462;2023-03-14T13:49:03;100001.50;;;14.09
75431;BMP280;64127;51.488;5.462;2023-03-14T13:51:39;100016.56;;;14.19
75431;BMP280;64127;51.488;5.462;2023-03-14T13:54:18;100020.03;;;14.13
75431;BMP280;64127;51.488;5.462;2023-03-14T13:57:04;100022.66;;;14.13
75431;BMP280;64127;51.488;5.462;2023-03-14T13:59:36;100025.34;;;14.18
75431;BMP280;64127;51.488;5.462;2023-03-14T14:02:14;100044.44;;;14.02
75431;BMP280;64127;51.488;5.462;2023-03-14T14:04:49;100059.31;;;13.97
75431;BMP280;64127;51.488;5.462;2023-03-14T14:07:21;100069.81;;;13.94
75431;BMP280;64127;51.488;5.462;2023-03-14T14:19:01;100112.75;;;13.88
75431;BMP280;64127;51.488;5.462;2023-03-14T14:22:17;100131.19;;;13.87
75431;BMP280;64127;51.488;5.462;2023-03-14T14:24:50;100132.03;;;13.86
75431;BMP280;64127;51.488;5.462;2023-03-14T14:27:39;100156.50;;;13.79
75431;BMP280;64127;51.488;5.462;2023-03-14T14:34:19;100171.78;;;13.48
75431;BMP280;64127;51.488;5.462;2023-03-14T14:36:52;100175.94;;;13.37
75431;BMP280;64127;51.488;5.462;2023-03-14T14:39:26;100174.91;;;13.28
75431;BMP280;64127;51.488;5.462;2023-03-14T14:42:00;100181.75;;;13.19
75431;BMP280;64127;51.488;5.462;2023-03-14T14:44:35;100195.41;;;13.02
75431;BMP280;64127;51.488;5.462;2023-03-14T14:47:18;100200.44;;;12.91
75431;BMP280;64127;51.488;5.462;2023-03-14T14:49:54;100219.00;;;12.97
75431;BMP280;64127;51.488;5.462;2023-03-14T14:52:44;100196.72;;;12.80
75431;BMP280;64127;51.488;5.462;2023-03-14T14:55:19;100214.09;;;12.74
75431;BMP280;64127;51.488;5.462;2023-03-14T14:57:55;100205.81;;;12.57
75431;BMP280;64127;51.488;5.462;2023-03-14T15:00:31;100232.94;;;12.54
75431;BMP280;64127;51.488;5.462;2023-03-14T15:03:03;100244.94;;;12.43
75431;BMP280;64127;51.488;5.462;2023-03-14T15:05:35;100246.50;;;12.35
75431;BMP280;64127;51.488;5.462;2023-03-14T15:08:10;100257.59;;;12.22
75431;BMP280;64127;51.488;5.462;2023-03-14T15:10:42;100267.00;;;12.14
75431;BMP280;64127;51.488;5.462;2023-03-14T15:13:15;100276.69;;;12.16
75431;BMP280;64127;51.488;5.462;2023-03-14T15:15:49;100286.31;;;12.16
75431;BMP280;64127;51.488;5.462;2023-03-14T15:18:24;100296.28;;;11.95
75431;BMP280;64127;51.488;5.462;2023-03-14T15:20:59;100299.53;;;11.86
75431;BMP280;64127;51.488;5.462;2023-03-14T15:23:32;100309.41;;;11.95
75431;BMP280;64127;51.488;5.462;2023-03-14T15:26:15;100306.81;;;11.96
75431;BMP280;64127;51.488;5.462;2023-03-14T15:28:48;100322.63;;;11.99
75431;BMP280;64127;51.488;5.462;2023-03-14T15:31:20;100314.16;;;11.77
75431;BMP280;64127;51.488;5.462;2023-03-14T15:33:53;100330.47;;;11.66
75431;BMP280;64127;51.488;5.462;2023-03-14T15:36:32;100340.72;;;11.57
75431;BMP280;64127;51.488;5.462;2023-03-14T15:39:06;100349.47;;;11.58
75431;BMP280;64127;51.488;5.462;2023-03-14T15:41:39;100354.44;;;11.49
75431;BMP280;64127;51.488;5.462;2023-03-14T15:44:10;100315.03;;;11.16
75431;BMP280;64127;51.488;5.462;2023-03-14T15:46:42;100341.66;;;11.30
75431;BMP280;64127;51.488;5.462;2023-03-14T15:49:14;100365.47;;;11.37
75431;BMP280;64127;51.488;5.462;2023-03-14T15:51:46;100366.03;;;11.27
75431;BMP280;64127;51.488;5.462;2023-03-14T15:54:19;100375.34;;;11.16
75431;BMP280;64127;51.488;5.462;2023-03-14T15:56:51;100390.84;;;11.08
75431;BMP280;64127;51.488;5.462;2023-03-14T15:59:24;100380.81;;;10.95
75431;BMP280;64127;51.488;5.462;2023-03-14T16:01:57;100398.94;;;10.89
75431;BMP280;64127;51.488;5.462;2023-03-14T16:04:29;100398.75;;;10.83
75431;BMP280;64127;51.488;5.462;2023-03-14T16:07:01;100403.97;;;10.82
75431;BMP280;64127;51.488;5.462;2023-03-14T16:09:33;100413.56;;;10.83
75431;BMP280;64127;51.488;5.462;2023-03-14T16:12:05;100403.63;;;10.73
75431;BMP280;64127;51.488;5.462;2023-03-14T16:14:39;100424.84;;;10.79
75431;BMP280;64127;51.488;5.462;2023-03-14T16:17:14;100424.97;;;10.83
75431;BMP280;64127;51.488;5.462;2023-03-14T16:19:46;100422.41;;;10.85
75431;BMP280;64127;51.488;5.462;2023-03-14T16:22:18;100430.47;;;10.91
75431;BMP280;64127;51.488;5.462;2023-03-14T16:24:50;100440.41;;;11.01
75431;BMP280;64127;51.488;5.462;2023-03-14T16:27:22;100440.47;;;11.02
75431;BMP280;64127;51.488;5.462;2023-03-14T16:29:54;100458.03;;;11.05
75431;BMP280;64127;51.488;5.462;2023-03-14T16:32:27;100459.38;;;10.94
75431;BMP280;64127;51.488;5.462;2023-03-14T16:34:59;100472.03;;;10.80
75431;BMP280;64127;51.488;5.462;2023-03-14T16:37:33;100475.97;;;10.67